createdAt,value
2022-08-20T00:02:13.011Z,23.50
2022-08-20T00:04:42.257Z,23.50
2022-08-20T00:07:10.127Z,23.60
2022-08-20T00:09:38.001Z,23.50
2022-08-20T00:12:07.244Z,23.50
2022-08-20T00:14:35.241Z,23.40
2022-08-20T00:17:03.899Z,23.40
2022-08-20T00:19:32.778Z,23.90
2022-08-20T00:22:02.015Z,23.50
2022-08-20T00:24:58.722Z,23.50
2022-08-20T00:27:26.756Z,23.50
2022-08-20T00:29:54.699Z,23.40
2022-08-20T00:32:23.250Z,23.50
2022-08-20T00:34:51.234Z,23.40
2022-08-20T00:37:20.485Z,23.40
2022-08-20T00:39:48.506Z,23.40
2022-08-20T00:42:16.435Z,23.40
2022-08-20T00:44:46.950Z,23.40
2022-08-20T00:47:14.847Z,23.40
2022-08-20T00:49:42.801Z,23.40
2022-08-20T00:52:13.815Z,23.30
2022-08-20T00:54:46.308Z,23.40
2022-08-20T00:57:25.546Z,23.40
2022-08-20T00:59:54.377Z,23.40
2022-08-20T01:02:27.537Z,23.40
2022-08-20T01:04:56.633Z,23.40
2022-08-20T01:07:32.448Z,23.40
2022-08-20T01:10:02.397Z,23.30
2022-08-20T01:12:31.307Z,23.30
2022-08-20T01:15:01.764Z,23.20
2022-08-20T01:17:32.909Z,23.30
2022-08-20T01:20:05.138Z,23.30
2022-08-20T01:22:57.438Z,23.20
2022-08-20T01:25:34.053Z,23.20
2022-08-20T01:28:03.939Z,23.10
2022-08-20T01:30:33.728Z,23.10
2022-08-20T01:33:02.496Z,23.10
2022-08-20T01:35:30.506Z,23.10
2022-08-20T01:37:58.518Z,23.10
2022-08-20T01:40:45.412Z,23.10
2022-08-20T01:43:14.963Z,23.40
2022-08-20T01:45:45.246Z,23.10
2022-08-20T01:48:17.420Z,23.10
2022-08-20T01:50:55.361Z,23.00
2022-08-20T01:53:34.545Z,23.00
2022-08-20T01:56:02.875Z,23.00
2022-08-20T01:58:33.479Z,22.90
2022-08-20T02:01:01.368Z,23.00
2022-08-20T02:03:33.508Z,23.00
2022-08-20T02:06:05.353Z,22.80
2022-08-20T02:08:33.653Z,22.80
2022-08-20T02:11:01.513Z,22.80
2022-08-20T02:13:30.747Z,22.80
2022-08-20T02:15:58.714Z,22.80
2022-08-20T02:18:26.592Z,22.70
2022-08-20T02:20:54.533Z,22.70
2022-08-20T02:23:22.940Z,22.80
2022-08-20T02:25:51.366Z,22.60
2022-08-20T02:28:20.712Z,22.60
2022-08-20T02:30:55.193Z,22.50
2022-08-20T02:33:24.670Z,22.50
2022-08-20T02:35:53.766Z,22.40
2022-08-20T02:38:21.709Z,22.40
2022-08-20T02:40:50.612Z,22.40
2022-08-20T02:43:20.017Z,22.40
2022-08-20T02:45:49.427Z,22.40
2022-08-20T02:48:20.911Z,22.20
2022-08-20T02:50:51.716Z,22.20
2022-08-20T02:53:20.232Z,22.10
2022-08-20T02:55:48.289Z,22.10
2022-08-20T02:58:16.589Z,22.10
2022-08-20T03:00:44.831Z,22.00
2022-08-20T03:03:15.559Z,22.00
2022-08-20T03:05:45.740Z,22.00
2022-08-20T03:08:15.370Z,22.50
2022-08-20T03:10:46.639Z,21.90
2022-08-20T03:13:16.301Z,22.10
2022-08-20T03:15:50.318Z,21.90
2022-08-20T03:18:22.768Z,22.10
2022-08-20T03:20:52.244Z,22.30
2022-08-20T03:23:21.396Z,21.90
2022-08-20T03:25:49.944Z,22.00
2022-08-20T03:28:19.234Z,21.90
2022-08-20T03:30:47.592Z,21.80
2022-08-20T03:33:16.353Z,21.80
2022-08-20T03:35:45.605Z,21.80
2022-08-20T03:38:15.522Z,21.80
2022-08-20T03:40:43.546Z,21.70
2022-08-20T03:43:12.128Z,21.70
2022-08-20T03:45:43.800Z,21.70
2022-08-20T03:48:14.362Z,21.90
2022-08-20T03:50:42.984Z,21.60
2022-08-20T03:53:14.744Z,21.60
2022-08-20T03:55:46.655Z,21.60
2022-08-20T03:58:33.252Z,21.60
2022-08-20T04:01:05.618Z,21.60
2022-08-20T04:03:34.001Z,21.50
2022-08-20T04:06:01.892Z,21.50
2022-08-20T04:08:31.349Z,21.40
2022-08-20T04:11:00.535Z,21.50
2022-08-20T04:13:29.909Z,21.40
2022-08-20T04:15:58.865Z,21.60
2022-08-20T04:18:28.147Z,21.40
2022-08-20T04:20:56.602Z,21.40
2022-08-20T04:23:24.565Z,21.40
2022-08-20T04:25:56.524Z,21.40
2022-08-20T04:28:28.669Z,21.40
2022-08-20T04:30:58.151Z,21.40
2022-08-20T04:33:35.297Z,21.40
2022-08-20T04:36:05.814Z,21.40
2022-08-20T04:38:49.893Z,21.30
2022-08-20T04:41:22.811Z,21.20
2022-08-20T04:43:53.054Z,21.20
2022-08-20T04:46:23.558Z,21.10
2022-08-20T04:48:51.508Z,21.20
2022-08-20T04:51:24.367Z,21.30
2022-08-20T04:53:54.275Z,21.10
2022-08-20T04:56:25.985Z,21.10
2022-08-20T04:58:55.306Z,21.10
2022-08-20T05:01:24.156Z,21.20
2022-08-20T05:03:54.655Z,21.50
2022-08-20T05:06:25.445Z,21.10
2022-08-20T05:08:53.632Z,21.10
2022-08-20T05:11:34.472Z,21.10
2022-08-20T05:14:05.622Z,21.20
2022-08-20T05:16:38.286Z,21.20
2022-08-20T05:19:06.713Z,21.30
2022-08-20T05:21:34.989Z,21.20
2022-08-20T05:24:02.905Z,21.10
2022-08-20T05:26:33.152Z,21.20
2022-08-20T05:29:01.058Z,21.20
2022-08-20T05:31:31.629Z,21.40
2022-08-20T05:34:01.894Z,21.30
2022-08-20T05:36:29.971Z,21.20
2022-08-20T05:38:57.984Z,21.40
2022-08-20T05:41:28.462Z,21.10
2022-08-20T05:44:01.737Z,21.60
2022-08-20T05:46:31.086Z,21.30
2022-08-20T05:48:59.942Z,21.30
2022-08-20T05:51:28.621Z,21.40
2022-08-20T05:53:59.549Z,21.40
2022-08-20T05:56:30.478Z,21.40
2022-08-20T05:59:03.597Z,21.50
2022-08-20T06:01:32.033Z,21.40
2022-08-20T06:04:17.728Z,21.50
2022-08-20T06:06:47.372Z,21.50
2022-08-20T06:09:30.561Z,21.50
2022-08-20T06:12:02.001Z,21.60
2022-08-20T06:14:31.700Z,21.60
2022-08-20T06:17:07.501Z,21.70
2022-08-20T06:19:36.253Z,21.70
2022-08-20T06:22:18.535Z,21.80
2022-08-20T06:24:53.354Z,21.80
2022-08-20T06:27:21.973Z,21.80
2022-08-20T06:29:51.924Z,21.90
2022-08-20T06:32:27.874Z,22.00
2022-08-20T06:35:02.068Z,22.00
2022-08-20T06:37:32.162Z,22.10
2022-08-20T06:40:03.812Z,22.10
2022-08-20T06:42:31.869Z,22.10
2022-08-20T06:45:05.572Z,22.10
2022-08-20T06:47:35.012Z,22.20
2022-08-20T06:50:02.954Z,22.30
2022-08-20T06:52:51.902Z,22.30
2022-08-20T06:55:19.094Z,22.30
2022-08-20T06:57:48.244Z,22.30
2022-08-20T07:00:20.769Z,22.40
2022-08-20T07:02:48.776Z,22.40
2022-08-20T07:05:17.144Z,22.50
2022-08-20T07:07:47.190Z,22.40
2022-08-20T07:10:16.821Z,22.40
2022-08-20T07:12:46.745Z,22.50
2022-08-20T07:15:15.551Z,22.50
2022-08-20T07:17:50.803Z,22.50
2022-08-20T07:20:18.923Z,22.60
2022-08-20T07:22:46.963Z,22.60
2022-08-20T07:25:18.903Z,22.60
2022-08-20T07:27:47.548Z,22.40
2022-08-20T07:30:56.257Z,22.50
2022-08-20T07:33:25.397Z,22.50
2022-08-20T07:35:53.287Z,22.60
2022-08-20T07:38:24.545Z,22.70
2022-08-20T07:40:53.764Z,22.70
2022-08-20T07:43:23.164Z,22.60
2022-08-20T07:45:52.221Z,22.60
2022-08-20T07:48:27.919Z,22.70
2022-08-20T07:51:02.867Z,22.70
2022-08-20T07:53:35.184Z,22.80
2022-08-20T07:56:05.862Z,22.90
2022-08-20T07:58:35.765Z,22.80
2022-08-20T08:01:05.113Z,22.80
2022-08-20T08:03:39.703Z,23.00
2022-08-20T08:06:29.939Z,22.80
2022-08-20T08:09:01.054Z,23.00
2022-08-20T08:11:29.713Z,22.90
2022-08-20T08:13:57.699Z,23.20
2022-08-20T08:16:25.714Z,23.10
2022-08-20T08:18:56.345Z,23.30
2022-08-20T08:21:26.137Z,23.10
2022-08-20T08:23:54.060Z,23.10
2022-08-20T08:26:22.340Z,23.20
2022-08-20T08:28:50.339Z,23.40
2022-08-20T08:31:18.231Z,23.40
2022-08-20T08:33:46.350Z,23.40
2022-08-20T08:36:16.973Z,23.30
2022-08-20T08:38:46.815Z,23.30
2022-08-20T08:41:20.581Z,23.40
2022-08-20T08:43:51.093Z,23.50
2022-08-20T08:46:22.685Z,23.50
2022-08-20T08:48:54.282Z,23.50
2022-08-20T08:51:27.785Z,23.60
2022-08-20T08:53:58.227Z,23.50
2022-08-20T08:56:29.433Z,23.50
2022-08-20T08:59:02.052Z,23.50
2022-08-20T09:01:54.581Z,23.60
2022-08-20T09:04:23.063Z,23.50
2022-08-20T09:06:54.448Z,23.50
2022-08-20T09:09:27.759Z,23.50
2022-08-20T09:12:04.883Z,23.40
2022-08-20T09:14:33.181Z,23.50
2022-08-20T09:17:06.377Z,23.60
2022-08-20T09:19:34.623Z,23.60
2022-08-20T09:22:08.799Z,23.70
2022-08-20T09:24:38.682Z,23.70
2022-08-20T09:27:07.404Z,23.90
2022-08-20T09:29:35.584Z,23.90
2022-08-20T09:32:07.673Z,24.00
2022-08-20T09:34:38.676Z,24.20
2022-08-20T09:37:06.683Z,24.20
2022-08-20T09:39:34.647Z,24.20
2022-08-20T09:42:15.485Z,24.30
2022-08-20T09:44:43.736Z,24.30
2022-08-20T09:47:11.893Z,24.20
2022-08-20T09:49:40.381Z,24.10
2022-08-20T09:52:12.321Z,24.00
2022-08-20T09:54:46.280Z,24.00
2022-08-20T09:57:17.359Z,24.00
2022-08-20T09:59:48.302Z,24.10
2022-08-20T10:02:16.187Z,24.20
2022-08-20T10:04:44.062Z,24.10
2022-08-20T10:07:12.259Z,24.20
2022-08-20T10:09:43.890Z,24.20
2022-08-20T10:12:12.794Z,24.30
2022-08-20T10:14:42.109Z,24.20
2022-08-20T10:17:10.007Z,23.80
2022-08-20T10:19:37.995Z,24.30
2022-08-20T10:22:06.383Z,24.30
2022-08-20T10:24:34.721Z,24.30
2022-08-20T10:27:03.460Z,24.30
2022-08-20T10:29:31.901Z,24.30
2022-08-20T10:32:12.079Z,24.40
2022-08-20T10:34:40.380Z,24.40
2022-08-20T10:37:08.336Z,24.40
2022-08-20T10:39:37.140Z,24.40
2022-08-20T10:42:05.363Z,24.50
2022-08-20T10:44:33.232Z,24.40
2022-08-20T10:47:15.255Z,24.30
2022-08-20T10:49:43.134Z,24.40
2022-08-20T10:52:11.274Z,24.40
2022-08-20T10:54:41.418Z,24.50
2022-08-20T10:57:10.951Z,24.40
2022-08-20T10:59:43.668Z,24.50
2022-08-20T11:02:13.721Z,24.50
2022-08-20T11:05:03.325Z,24.70
2022-08-20T11:07:54.253Z,24.70
2022-08-20T11:10:21.943Z,24.70
2022-08-20T11:12:50.085Z,24.70
2022-08-20T11:15:18.096Z,24.60
2022-08-20T11:17:48.315Z,24.60
2022-08-20T11:20:19.910Z,24.60
2022-08-20T11:22:48.181Z,24.60
2022-08-20T11:25:16.256Z,24.80
2022-08-20T11:27:47.141Z,24.80
2022-08-20T11:30:20.398Z,24.70
2022-08-20T11:32:49.743Z,24.70
2022-08-20T11:35:41.660Z,24.70
2022-08-20T11:38:06.680Z,24.70
2022-08-20T11:40:34.693Z,24.70
2022-08-20T11:43:18.543Z,24.50
2022-08-20T11:45:48.608Z,24.60
2022-08-20T11:48:18.062Z,24.60
2022-08-20T11:50:47.426Z,24.30
2022-08-20T11:53:15.710Z,24.40
2022-08-20T11:55:44.222Z,24.60
2022-08-20T11:58:12.852Z,24.50
2022-08-20T12:00:40.737Z,24.60
2022-08-20T12:03:10.354Z,24.60
2022-08-20T12:05:43.300Z,24.80
2022-08-20T12:08:27.115Z,25.20
2022-08-20T12:10:57.037Z,25.40
2022-08-20T12:13:30.953Z,25.40
2022-08-20T12:16:13.052Z,25.40
2022-08-20T12:18:41.046Z,25.60
2022-08-20T12:21:10.345Z,25.50
2022-08-20T12:23:38.353Z,25.50
2022-08-20T12:26:06.714Z,25.30
2022-08-20T12:28:34.846Z,25.40
2022-08-20T12:31:02.746Z,25.50
2022-08-20T12:33:30.895Z,25.70
2022-08-20T12:35:58.827Z,25.80
2022-08-20T12:38:28.348Z,25.70
2022-08-20T12:40:56.241Z,25.70
2022-08-20T12:43:25.132Z,25.40
2022-08-20T12:45:53.316Z,25.40
2022-08-20T12:48:21.784Z,25.30
2022-08-20T12:50:50.471Z,25.20
2022-08-20T12:53:18.436Z,25.10
2022-08-20T12:55:48.047Z,25.10
2022-08-20T12:58:15.921Z,25.00
2022-08-20T13:00:50.834Z,25.10
2022-08-20T13:03:20.842Z,25.00
2022-08-20T13:05:49.337Z,25.00
2022-08-20T13:08:19.102Z,24.90
2022-08-20T13:10:49.153Z,24.90
2022-08-20T13:13:20.791Z,24.60
2022-08-20T13:15:50.339Z,24.70
2022-08-20T13:18:18.474Z,24.70
2022-08-20T13:20:46.736Z,24.60
2022-08-20T13:23:14.667Z,24.60
2022-08-20T13:25:42.840Z,24.60
2022-08-20T13:28:23.144Z,24.70
2022-08-20T13:30:51.117Z,24.60
2022-08-20T13:33:18.987Z,24.50
2022-08-20T13:35:46.937Z,24.40
2022-08-20T13:38:14.883Z,24.50
2022-08-20T13:40:43.219Z,24.70
2022-08-20T13:43:16.822Z,24.80
2022-08-20T13:45:44.681Z,24.80
2022-08-20T13:48:15.091Z,24.90
2022-08-20T13:50:43.757Z,25.20
2022-08-20T13:53:14.994Z,25.30
2022-08-20T13:55:43.197Z,25.70
2022-08-20T13:58:11.115Z,26.00
2022-08-20T14:00:40.429Z,26.00
2022-08-20T14:03:08.708Z,26.10
2022-08-20T14:05:37.278Z,26.20
2022-08-20T14:08:10.603Z,26.30
2022-08-20T14:10:39.354Z,26.30
2022-08-20T14:13:18.073Z,26.20
2022-08-20T14:15:47.513Z,26.10
2022-08-20T14:18:16.280Z,26.00
2022-08-20T14:20:45.350Z,26.10
2022-08-20T14:23:14.179Z,25.90
2022-08-20T14:25:42.532Z,25.70
2022-08-20T14:28:12.480Z,25.70
2022-08-20T14:30:40.921Z,25.50
2022-08-20T14:33:10.406Z,25.70
2022-08-20T14:35:38.255Z,25.80
2022-08-20T14:38:07.085Z,25.70
2022-08-20T14:40:36.060Z,25.60
2022-08-20T14:43:04.896Z,25.50
2022-08-20T14:45:32.906Z,25.40
2022-08-20T14:48:00.841Z,25.50
2022-08-20T14:50:33.244Z,25.30
2022-08-20T14:53:02.069Z,25.00
2022-08-20T14:55:32.639Z,25.10
2022-08-20T14:58:00.789Z,25.30
2022-08-20T15:00:30.870Z,25.10
2022-08-20T15:02:59.152Z,24.90
2022-08-20T15:05:29.841Z,24.80
2022-08-20T15:07:59.435Z,24.90
2022-08-20T15:10:30.642Z,25.00
2022-08-20T15:12:59.201Z,25.10
2022-08-20T15:15:27.568Z,25.00
2022-08-20T15:17:57.858Z,24.70
2022-08-20T15:20:28.439Z,24.80
2022-08-20T15:22:57.995Z,24.70
2022-08-20T15:25:29.165Z,24.70
2022-08-20T15:28:05.873Z,24.80
2022-08-20T15:30:33.716Z,24.90
2022-08-20T15:33:02.107Z,24.90
2022-08-20T15:35:30.631Z,25.00
2022-08-20T15:38:00.649Z,25.10
2022-08-20T15:40:31.895Z,25.00
2022-08-20T15:43:00.630Z,25.00
2022-08-20T15:45:28.757Z,25.10
2022-08-20T15:48:03.352Z,25.10
2022-08-20T15:51:01.316Z,25.30
2022-08-20T15:53:36.275Z,25.10
2022-08-20T15:56:13.515Z,24.90
2022-08-20T15:58:48.764Z,25.00
2022-08-20T16:01:25.658Z,24.80
2022-08-20T16:04:33.235Z,24.80
2022-08-20T16:07:08.355Z,24.90
2022-08-20T16:09:54.236Z,24.80
2022-08-20T16:12:34.190Z,24.70
2022-08-20T16:15:06.852Z,24.80
2022-08-20T16:17:42.302Z,24.70
2022-08-20T16:20:17.665Z,24.80
2022-08-20T16:22:47.484Z,24.70
2022-08-20T16:25:22.506Z,24.70
2022-08-20T16:28:03.011Z,24.80
2022-08-20T16:30:38.327Z,24.70
2022-08-20T16:33:11.215Z,24.60
2022-08-20T16:35:45.634Z,24.60
2022-08-20T16:38:20.932Z,24.60
2022-08-20T16:40:56.344Z,24.50
2022-08-20T16:43:36.340Z,24.60
2022-08-20T16:46:09.697Z,24.60
2022-08-20T16:48:41.760Z,24.60
2022-08-20T16:51:14.712Z,24.60
2022-08-20T16:53:42.591Z,24.40
2022-08-20T16:56:13.026Z,24.50
2022-08-20T16:58:41.017Z,24.50
2022-08-20T17:01:12.699Z,24.50
2022-08-20T17:03:49.579Z,24.40
2022-08-20T17:06:26.975Z,24.20
2022-08-20T17:08:55.186Z,24.40
2022-08-20T17:11:32.629Z,24.20
2022-08-20T17:14:10.409Z,24.30
2022-08-20T17:16:42.271Z,24.40
2022-08-20T17:19:27.029Z,24.50
2022-08-20T17:21:55.740Z,24.40
2022-08-20T17:24:27.955Z,24.40
2022-08-20T17:27:03.776Z,24.50
2022-08-20T17:29:48.165Z,24.40
2022-08-20T17:32:19.544Z,24.40
2022-08-20T17:34:49.155Z,24.40
2022-08-20T17:37:23.164Z,24.40
2022-08-20T17:39:55.260Z,24.40
2022-08-20T17:42:27.021Z,24.50
2022-08-20T17:44:58.747Z,24.50
2022-08-20T17:47:32.616Z,24.50
2022-08-20T17:50:05.459Z,24.40
2022-08-20T17:52:40.297Z,24.40
2022-08-20T17:55:09.432Z,24.40
2022-08-20T17:57:41.560Z,24.20
2022-08-20T18:00:15.406Z,24.30
2022-08-20T18:02:44.073Z,24.30
2022-08-20T18:05:18.851Z,24.30
2022-08-20T18:07:58.129Z,24.30
2022-08-20T18:10:28.176Z,24.40
2022-08-20T18:13:03.028Z,24.30
2022-08-20T18:15:35.620Z,24.50
2022-08-20T18:18:16.951Z,24.40
2022-08-20T18:21:09.295Z,24.40
2022-08-20T18:23:41.249Z,24.20
2022-08-20T18:26:14.104Z,24.20
2022-08-20T18:28:47.374Z,24.20
2022-08-20T18:31:27.721Z,24.20
2022-08-20T18:33:56.091Z,24.10
2022-08-20T18:36:27.050Z,24.10
2022-08-20T18:39:02.243Z,24.10
2022-08-20T18:41:32.768Z,24.10
2022-08-20T18:44:09.127Z,24.00
2022-08-20T18:46:38.564Z,24.10
2022-08-20T18:49:09.540Z,24.00
2022-08-20T18:51:41.475Z,24.10
2022-08-20T18:54:09.976Z,24.00
2022-08-20T18:56:41.652Z,24.00
2022-08-20T18:59:16.133Z,24.00
2022-08-20T19:01:47.540Z,24.00
2022-08-20T19:04:25.501Z,23.90
2022-08-20T19:06:57.921Z,23.90
2022-08-20T19:09:45.161Z,23.90
2022-08-20T19:12:44.791Z,23.80
2022-08-20T19:15:17.415Z,23.70
2022-08-20T19:17:56.492Z,23.70
2022-08-20T19:20:28.294Z,23.60
2022-08-20T19:23:01.299Z,23.70
2022-08-20T19:25:32.715Z,23.60
2022-08-20T19:28:18.404Z,23.50
2022-08-20T19:30:47.652Z,23.50
2022-08-20T19:33:15.823Z,23.40
2022-08-20T19:35:47.536Z,23.80
2022-08-20T19:38:17.570Z,23.40
2022-08-20T19:40:46.164Z,23.40
2022-08-20T19:43:17.591Z,23.30
2022-08-20T19:45:51.834Z,23.30
2022-08-20T19:48:37.225Z,23.60
2022-08-20T19:51:19.719Z,23.20
2022-08-20T19:53:49.878Z,23.20
2022-08-20T19:56:24.735Z,23.20
2022-08-20T19:59:05.200Z,23.20
2022-08-20T20:01:41.812Z,23.20
2022-08-20T20:04:18.487Z,23.10
2022-08-20T20:06:49.945Z,23.10
2022-08-20T20:09:22.067Z,23.10
2022-08-20T20:11:53.768Z,23.10
2022-08-20T20:14:26.521Z,23.20
2022-08-20T20:16:56.206Z,23.00
2022-08-20T20:19:27.189Z,23.10
2022-08-20T20:22:11.846Z,23.00
2022-08-20T20:25:05.475Z,23.00
2022-08-20T20:27:39.465Z,22.80
2022-08-20T20:30:15.036Z,22.90
2022-08-20T20:32:49.907Z,22.90
2022-08-20T20:35:36.110Z,22.80
2022-08-20T20:38:07.353Z,22.80
2022-08-20T20:40:46.263Z,22.80
2022-08-20T20:43:25.223Z,22.90
2022-08-20T20:46:06.358Z,22.90
2022-08-20T20:48:46.013Z,22.80
2022-08-20T20:51:22.809Z,22.80
2022-08-20T20:53:54.884Z,22.80
2022-08-20T20:56:33.780Z,22.80
2022-08-20T20:59:16.380Z,22.80
2022-08-20T21:01:49.802Z,22.80
2022-08-20T21:04:42.327Z,22.80
2022-08-20T21:07:22.382Z,22.80
2022-08-20T21:09:52.063Z,22.50
2022-08-20T21:12:20.712Z,22.70
2022-08-20T21:14:51.866Z,22.70
2022-08-20T21:17:26.145Z,22.70
2022-08-20T21:19:55.511Z,22.70
2022-08-20T21:22:27.718Z,22.70
2022-08-20T21:24:55.674Z,22.70
2022-08-20T21:27:27.487Z,22.60
2022-08-20T21:29:56.348Z,22.70
2022-08-20T21:32:24.849Z,22.80
2022-08-20T21:34:53.240Z,22.60
2022-08-20T21:37:22.492Z,22.60
2022-08-20T21:39:50.422Z,22.60
2022-08-20T21:42:28.947Z,22.60
2022-08-20T21:44:57.957Z,22.60
2022-08-20T21:47:26.792Z,22.60
2022-08-20T21:49:55.140Z,22.60
2022-08-20T21:52:27.763Z,22.60
2022-08-20T21:55:04.865Z,22.60
2022-08-20T21:57:35.446Z,22.60
2022-08-20T22:00:12.049Z,22.60
2022-08-20T22:02:39.950Z,22.60
2022-08-20T22:05:11.637Z,22.60
2022-08-20T22:07:42.646Z,22.70
2022-08-20T22:10:11.524Z,22.70
2022-08-20T22:12:39.506Z,22.60
2022-08-20T22:15:08.783Z,22.60
2022-08-20T22:17:36.817Z,22.60
2022-08-20T22:20:05.376Z,22.60
2022-08-20T22:22:33.316Z,22.60
2022-08-20T22:25:02.727Z,22.60
2022-08-20T22:27:30.613Z,22.50
2022-08-20T22:30:06.594Z,22.50
2022-08-20T22:32:52.040Z,22.50
2022-08-20T22:35:20.725Z,22.90
2022-08-20T22:37:48.606Z,22.50
2022-08-20T22:40:17.978Z,22.50
2022-08-20T22:42:46.260Z,22.60
2022-08-20T22:45:15.098Z,22.50
2022-08-20T22:47:44.062Z,22.50
2022-08-20T22:50:13.314Z,22.50
2022-08-20T22:52:45.358Z,22.50
2022-08-20T22:55:13.548Z,22.40
2022-08-20T22:57:42.816Z,22.40
2022-08-20T23:00:14.029Z,22.40
2022-08-20T23:02:43.645Z,22.40
2022-08-20T23:05:16.156Z,22.40
2022-08-20T23:07:44.805Z,22.40
2022-08-20T23:10:13.076Z,22.40
2022-08-20T23:12:42.447Z,22.40
2022-08-20T23:15:11.111Z,22.50
2022-08-20T23:17:39.388Z,22.40
2022-08-20T23:20:08.380Z,22.40
2022-08-20T23:23:28.725Z,22.30
2022-08-20T23:25:57.051Z,22.30
2022-08-20T23:28:29.823Z,22.30
2022-08-20T23:30:57.737Z,22.40
2022-08-20T23:33:26.845Z,22.30
2022-08-20T23:35:54.824Z,22.30
2022-08-20T23:38:23.568Z,22.30
2022-08-20T23:40:51.509Z,22.30
2022-08-20T23:43:19.669Z,22.90
2022-08-20T23:45:49.135Z,22.40
2022-08-20T23:48:17.036Z,22.30
2022-08-20T23:50:44.952Z,22.30
2022-08-20T23:53:16.796Z,22.30
2022-08-20T23:55:44.769Z,22.30
2022-08-20T23:58:12.665Z,22.30
